Wetterdaten: Donnerstag, 24.11.2011
Datum Zeit Temp. A. Feuchte A. Luftdruck Regen Wind Richtung Richtung Sonnenschein UV Solar Windben
24.11.2011 00:00 7,9 C 91 % 1029,8 hPa 0,0 mm 0,0 km/h (0 Bft) N 0 0 min 0 UV-I 0 W/m 0,0 km/h (0 Bft)
24.11.2011 00:10 7,9 C 91 % 1029,7 hPa 0,0 mm 0,0 km/h (0 Bft) N 0 0 min 0 UV-I 0 W/m 0,0 km/h (0 Bft)
24.11.2011 00:20 7,9 C 91 % 1029,9 hPa 0,0 mm 0,0 km/h (0 Bft) O-SO 112 0 min 0 UV-I 0 W/m 1,6 km/h (1 Bft)
24.11.2011 00:30 7,9 C 91 % 1030,0 hPa 0,0 mm 0,0 km/h (0 Bft) O-SO 112 0 min 0 UV-I 0 W/m 1,6 km/h (1 Bft)
24.11.2011 00:40 8,0 C 91 % 1030,1 hPa 0,0 mm 0,0 km/h (0 Bft) N 0 0 min 0 UV-I 0 W/m 0,0 km/h (0 Bft)
24.11.2011 00:50 8,0 C 91 % 1030,0 hPa 0,0 mm 0,0 km/h (0 Bft) N 0 0 min 0 UV-I 0 W/m 0,0 km/h (0 Bft)
24.11.2011 01:00 8,1 C 91 % 1030,2 hPa 0,0 mm 0,0 km/h (0 Bft) N 0 0 min 0 UV-I 0 W/m 0,0 km/h (0 Bft)
24.11.2011 01:10 8,1 C 91 % 1030,2 hPa 0,0 mm 0,0 km/h (0 Bft) N 0 0 min 0 UV-I 0 W/m 0,0 km/h (0 Bft)
24.11.2011 01:20 8,1 C 91 % 1030,1 hPa 0,0 mm 0,0 km/h (0 Bft) N 0 0 min 0 UV-I 0 W/m 0,0 km/h (0 Bft)
24.11.2011 01:30 8,1 C 91 % 1030,1 hPa 0,0 mm 0,0 km/h (0 Bft) O-SO 112 0 min 0 UV-I 0 W/m 1,6 km/h (1 Bft)
24.11.2011 01:40 8,1 C 91 % 1030,0 hPa 0,0 mm 0,0 km/h (0 Bft) O-SO 112 0 min 0 UV-I 0 W/m 1,6 km/h (1 Bft)
24.11.2011 01:50 8,2 C 91 % 1030,1 hPa 0,0 mm 0,0 km/h (0 Bft) O-SO 112 0 min 0 UV-I 0 W/m 1,6 km/h (1 Bft)
24.11.2011 02:00 8,2 C 91 % 1030,1 hPa 0,0 mm 0,0 km/h (0 Bft) O-SO 112 0 min 0 UV-I 0 W/m 3,2 km/h (1 Bft)
24.11.2011 02:10 8,2 C 91 % 1030,1 hPa 0,0 mm 0,0 km/h (0 Bft) O-SO 112 0 min 0 UV-I 0 W/m 4,8 km/h (1 Bft)
24.11.2011 02:20 8,3 C 91 % 1030,1 hPa 0,0 mm 0,0 km/h (0 Bft) O-SO 112 0 min 0 UV-I 0 W/m 1,6 km/h (1 Bft)
24.11.2011 02:30 8,4 C 91 % 1030,3 hPa 0,0 mm 0,0 km/h (0 Bft) O-SO 112 0 min 0 UV-I 0 W/m 1,6 km/h (1 Bft)
24.11.2011 02:40 8,4 C 91 % 1030,3 hPa 0,0 mm 0,0 km/h (0 Bft) O-SO 112 0 min 0 UV-I 0 W/m 1,6 km/h (1 Bft)
24.11.2011 02:50 8,4 C 91 % 1030,3 hPa 0,0 mm 0,0 km/h (0 Bft) O-SO 112 0 min 0 UV-I 0 W/m 1,6 km/h (1 Bft)
24.11.2011 03:00 8,5 C 91 % 1030,3 hPa 0,0 mm 0,0 km/h (0 Bft) N 0 0 min 0 UV-I 0 W/m 0,0 km/h (0 Bft)
24.11.2011 03:10 8,5 C 91 % 1030,3 hPa 0,0 mm 0,0 km/h (0 Bft) N 0 0 min 0 UV-I 0 W/m 0,0 km/h (0 Bft)
24.11.2011 03:20 8,6 C 91 % 1030,3 hPa 0,0 mm 0,0 km/h (0 Bft) O-SO 112 0 min 0 UV-I 0 W/m 1,6 km/h (1 Bft)
24.11.2011 03:30 8,6 C 91 % 1030,2 hPa 0,0 mm 0,0 km/h (0 Bft) O-SO 112 0 min 0 UV-I 0 W/m 1,6 km/h (1 Bft)
24.11.2011 03:40 8,6 C 91 % 1030,3 hPa 0,0 mm 0,0 km/h (0 Bft) O-SO 112 0 min 0 UV-I 0 W/m 1,6 km/h (1 Bft)
24.11.2011 03:50 8,6 C 92 % 1030,1 hPa 0,0 mm 0,0 km/h (0 Bft) N 0 0 min 0 UV-I 0 W/m 0,0 km/h (0 Bft)
24.11.2011 04:00 8,6 C 92 % 1030,1 hPa 0,0 mm 0,0 km/h (0 Bft) N 0 0 min 0 UV-I 0 W/m 0,0 km/h (0 Bft)
24.11.2011 04:10 8,6 C 92 % 1030,1 hPa 0,0 mm 0,0 km/h (0 Bft) N 0 0 min 0 UV-I 0 W/m 0,0 km/h (0 Bft)
24.11.2011 04:20 8,6 C 91 % 1030,3 hPa 0,0 mm 0,0 km/h (0 Bft) O-SO 112 0 min 0 UV-I 0 W/m 1,6 km/h (1 Bft)
24.11.2011 04:30 8,5 C 91 % 1030,3 hPa 0,0 mm 0,0 km/h (0 Bft) N 0 0 min 0 UV-I 0 W/m 0,0 km/h (0 Bft)
24.11.2011 04:40 8,5 C 91 % 1030,3 hPa 0,0 mm 0,0 km/h (0 Bft) N 0 0 min 0 UV-I 0 W/m 0,0 km/h (0 Bft)
24.11.2011 04:50 8,4 C 91 % 1030,2 hPa 0,0 mm 0,0 km/h (0 Bft) N 0 0 min 0 UV-I 0 W/m 0,0 km/h (0 Bft)
24.11.2011 05:00 8,3 C 91 % 1030,3 hPa 0,0 mm 0,0 km/h (0 Bft) N 0 0 min 0 UV-I 0 W/m 0,0 km/h (0 Bft)
24.11.2011 05:10 8,2 C 91 % 1030,3 hPa 0,0 mm 0,0 km/h (0 Bft) N 0 0 min 0 UV-I 0 W/m 0,0 km/h (0 Bft)
24.11.2011 05:20 8,1 C 91 % 1030,5 hPa 0,0 mm 0,0 km/h (0 Bft) N 0 0 min 0 UV-I 0 W/m 0,0 km/h (0 Bft)
24.11.2011 05:30 7,9 C 91 % 1030,6 hPa 0,0 mm 0,0 km/h (0 Bft) N 0 0 min 0 UV-I 0 W/m 0,0 km/h (0 Bft)
24.11.2011 05:40 7,8 C 91 % 1030,5 hPa 0,0 mm 0,0 km/h (0 Bft) N 0 0 min 0 UV-I 0 W/m 0,0 km/h (0 Bft)
24.11.2011 05:50 7,6 C 91 % 1030,5 hPa 0,0 mm 0,0 km/h (0 Bft) N 0 0 min 0 UV-I 0 W/m 0,0 km/h (0 Bft)
24.11.2011 06:00 7,4 C 91 % 1030,6 hPa 0,0 mm 0,0 km/h (0 Bft) N 0 0 min 0 UV-I 0 W/m 0,0 km/h (0 Bft)
24.11.2011 06:10 7,3 C 91 % 1030,7 hPa 0,0 mm 0,0 km/h (0 Bft) N 0 0 min 0 UV-I 0 W/m 0,0 km/h (0 Bft)
24.11.2011 06:20 7,3 C 91 % 1030,6 hPa 0,0 mm 0,0 km/h (0 Bft) N 0 0 min 0 UV-I 0 W/m 0,0 km/h (0 Bft)
24.11.2011 06:30 7,3 C 91 % 1030,7 hPa 0,0 mm 0,0 km/h (0 Bft) N 0 0 min 0 UV-I 0 W/m 0,0 km/h (0 Bft)
24.11.2011 06:40 7,3 C 91 % 1030,8 hPa 0,0 mm 0,0 km/h (0 Bft) N 0 0 min 0 UV-I 0 W/m 0,0 km/h (0 Bft)
24.11.2011 06:50 7,3 C 91 % 1030,8 hPa 0,0 mm 0,0 km/h (0 Bft) O-SO 112 0 min 0 UV-I 0 W/m 1,6 km/h (1 Bft)
24.11.2011 07:00 7,3 C 91 % 1030,8 hPa 0,0 mm 0,0 km/h (0 Bft) N 0 0 min 0 UV-I 0 W/m 0,0 km/h (0 Bft)
24.11.2011 07:10 7,3 C 91 % 1030,9 hPa 0,0 mm 0,0 km/h (0 Bft) O-SO 112 0 min 0 UV-I 0 W/m 1,6 km/h (1 Bft)
24.11.2011 07:20 7,4 C 92 % 1030,9 hPa 0,0 mm 0,0 km/h (0 Bft) O-SO 112 0 min 0 UV-I 0 W/m 4,8 km/h (1 Bft)
24.11.2011 07:30 7,6 C 92 % 1031,0 hPa 0,0 mm 1,6 km/h (1 Bft) S-SO 157 0 min 0 UV-I 0 W/m 8,0 km/h (2 Bft)
24.11.2011 07:40 7,9 C 92 % 1031,1 hPa 0,0 mm 1,6 km/h (1 Bft) S-SO 157 0 min 0 UV-I 0 W/m 8,0 km/h (2 Bft)
24.11.2011 07:50 8,0 C 92 % 1031,2 hPa 0,0 mm 0,0 km/h (0 Bft) S-SO 157 0 min 0 UV-I 0 W/m 4,8 km/h (1 Bft)
24.11.2011 08:00 8,1 C 92 % 1031,1 hPa 0,0 mm 0,0 km/h (0 Bft) S-SO 157 0 min 0 UV-I 0 W/m 3,2 km/h (1 Bft)
24.11.2011 08:10 8,1 C 92 % 1031,1 hPa 0,0 mm 0,0 km/h (0 Bft) S-SO 157 0 min 0 UV-I 0 W/m 1,6 km/h (1 Bft)
24.11.2011 08:20 8,1 C 92 % 1031,3 hPa 0,0 mm 0,0 km/h (0 Bft) S-SO 157 0 min 0 UV-I 7 W/m 3,2 km/h (1 Bft)
24.11.2011 08:30 8,1 C 92 % 1031,5 hPa 0,0 mm 0,0 km/h (0 Bft) S-SO 157 0 min 0 UV-I 11 W/m 1,6 km/h (1 Bft)
24.11.2011 08:40 8,0 C 92 % 1031,5 hPa 0,0 mm 0,0 km/h (0 Bft) S-SO 157 0 min 0 UV-I 21 W/m 1,6 km/h (1 Bft)
24.11.2011 08:50 7,9 C 92 % 1031,6 hPa 0,0 mm 0,0 km/h (0 Bft) N 0 0 min 0 UV-I 23 W/m 0,0 km/h (0 Bft)
24.11.2011 09:00 7,9 C 92 % 1031,6 hPa 0,0 mm 0,0 km/h (0 Bft) N 0 0 min 0 UV-I 21 W/m 0,0 km/h (0 Bft)
24.11.2011 09:10 7,8 C 92 % 1031,6 hPa 0,0 mm 0,0 km/h (0 Bft) N 0 0 min 0 UV-I 23 W/m 0,0 km/h (0 Bft)
24.11.2011 09:20 7,8 C 92 % 1031,7 hPa 0,0 mm 0,0 km/h (0 Bft) N 0 0 min 0 UV-I 35 W/m 0,0 km/h (0 Bft)
24.11.2011 09:30 7,8 C 92 % 1031,8 hPa 0,0 mm 0,0 km/h (0 Bft) N 0 0 min 0 UV-I 39 W/m 0,0 km/h (0 Bft)
24.11.2011 09:40 7,8 C 92 % 1031,8 hPa 0,0 mm 0,0 km/h (0 Bft) N 0 0 min 0 UV-I 42 W/m 0,0 km/h (0 Bft)
24.11.2011 09:50 7,8 C 92 % 1031,8 hPa 0,0 mm 0,0 km/h (0 Bft) N 0 0 min 0 UV-I 65 W/m 0,0 km/h (0 Bft)
24.11.2011 10:00 8,0 C 93 % 1031,9 hPa 0,0 mm 0,0 km/h (0 Bft) N 0 0 min 0 UV-I 98 W/m 0,0 km/h (0 Bft)
24.11.2011 10:10 8,3 C 93 % 1031,8 hPa 0,0 mm 0,0 km/h (0 Bft) S-SO 157 0 min 0 UV-I 125 W/m 1,6 km/h (1 Bft)
24.11.2011 10:20 8,5 C 93 % 1031,8 hPa 0,0 mm 0,0 km/h (0 Bft) N 0 0 min 1 UV-I 118 W/m 0,0 km/h (0 Bft)
24.11.2011 10:30 8,6 C 93 % 1031,8 hPa 0,0 mm 0,0 km/h (0 Bft) S-SO 157 0 min 1 UV-I 100 W/m 6,4 km/h (2 Bft)
24.11.2011 10:40 8,7 C 93 % 1031,8 hPa 0,0 mm 0,0 km/h (0 Bft) S-SO 157 0 min 1 UV-I 125 W/m 1,6 km/h (1 Bft)
24.11.2011 10:50 8,9 C 93 % 1031,6 hPa 0,0 mm 0,0 km/h (0 Bft) S-SO 157 0 min 1 UV-I 137 W/m 4,8 km/h (1 Bft)
24.11.2011 11:00 9,2 C 92 % 1031,5 hPa 0,0 mm 0,0 km/h (0 Bft) S-SO 157 10 min 1 UV-I 193 W/m 4,8 km/h (1 Bft)
24.11.2011 11:10 9,6 C 90 % 1031,4 hPa 0,0 mm 0,0 km/h (0 Bft) S-SO 157 10 min 1 UV-I 174 W/m 4,8 km/h (1 Bft)
24.11.2011 11:20 9,8 C 88 % 1031,3 hPa 0,0 mm 1,6 km/h (1 Bft) S-SO 157 10 min 1 UV-I 171 W/m 6,4 km/h (2 Bft)
24.11.2011 11:30 10,0 C 87 % 1031,2 hPa 0,0 mm 1,6 km/h (1 Bft) S 180 10 min 1 UV-I 183 W/m 8,0 km/h (2 Bft)
24.11.2011 11:40 10,2 C 86 % 1031,2 hPa 0,0 mm 1,6 km/h (1 Bft) S 180 10 min 1 UV-I 186 W/m 8,0 km/h (2 Bft)
24.11.2011 11:50 10,4 C 85 % 1031,2 hPa 0,0 mm 3,2 km/h (1 Bft) S 180 0 min 1 UV-I 149 W/m 9,7 km/h (2 Bft)
24.11.2011 12:00 10,5 C 84 % 1031,2 hPa 0,0 mm 3,2 km/h (1 Bft) S 180 10 min 1 UV-I 197 W/m 9,7 km/h (2 Bft)
24.11.2011 12:10 10,8 C 82 % 1031,2 hPa 0,0 mm 3,2 km/h (1 Bft) S-SW 202 10 min 1 UV-I 220 W/m 12,9 km/h (3 Bft)
24.11.2011 12:20 10,8 C 82 % 1031,1 hPa 0,0 mm 3,2 km/h (1 Bft) SW 225 10 min 1 UV-I 171 W/m 14,5 km/h (3 Bft)
24.11.2011 12:30 10,9 C 81 % 1031,0 hPa 0,0 mm 1,6 km/h (1 Bft) SW 225 10 min 1 UV-I 225 W/m 9,7 km/h (2 Bft)
24.11.2011 12:40 11,0 C 80 % 1030,9 hPa 0,0 mm 3,2 km/h (1 Bft) SW 225 10 min 1 UV-I 211 W/m 11,3 km/h (2 Bft)
24.11.2011 12:50 11,2 C 80 % 1030,9 hPa 0,0 mm 1,6 km/h (1 Bft) SW 225 10 min 1 UV-I 243 W/m 8,0 km/h (2 Bft)
24.11.2011 13:00 11,3 C 78 % 1031,0 hPa 0,0 mm 1,6 km/h (1 Bft) SW 225 10 min 1 UV-I 209 W/m 9,7 km/h (2 Bft)
24.11.2011 13:10 11,3 C 76 % 1031,0 hPa 0,0 mm 6,4 km/h (2 Bft) SW 225 10 min 1 UV-I 193 W/m 16,1 km/h (3 Bft)
24.11.2011 13:20 11,3 C 77 % 1030,9 hPa 0,0 mm 1,6 km/h (1 Bft) W-SW 247 10 min 1 UV-I 206 W/m 11,3 km/h (2 Bft)
24.11.2011 13:30 11,4 C 76 % 1030,7 hPa 0,0 mm 3,2 km/h (1 Bft) W-SW 247 10 min 1 UV-I 174 W/m 11,3 km/h (2 Bft)
24.11.2011 13:40 11,4 C 75 % 1030,5 hPa 0,0 mm 3,2 km/h (1 Bft) W-SW 247 10 min 1 UV-I 181 W/m 9,7 km/h (2 Bft)
24.11.2011 13:50 11,4 C 74 % 1030,4 hPa 0,0 mm 1,6 km/h (1 Bft) W-SW 247 10 min 1 UV-I 169 W/m 9,7 km/h (2 Bft)
24.11.2011 14:00 11,4 C 74 % 1030,5 hPa 0,0 mm 3,2 km/h (1 Bft) W-SW 247 10 min 1 UV-I 172 W/m 9,7 km/h (2 Bft)
24.11.2011 14:10 11,4 C 74 % 1030,4 hPa 0,0 mm 1,6 km/h (1 Bft) W-SW 247 0 min 1 UV-I 116 W/m 8,0 km/h (2 Bft)
24.11.2011 14:20 11,3 C 75 % 1030,3 hPa 0,0 mm 1,6 km/h (1 Bft) W-SW 247 0 min 1 UV-I 95 W/m 6,4 km/h (2 Bft)
24.11.2011 14:30 11,2 C 74 % 1030,3 hPa 0,0 mm 1,6 km/h (1 Bft) W-SW 247 0 min 0 UV-I 91 W/m 8,0 km/h (2 Bft)
24.11.2011 14:40 11,2 C 74 % 1030,3 hPa 0,0 mm 1,6 km/h (1 Bft) W-SW 247 0 min 0 UV-I 91 W/m 8,0 km/h (2 Bft)
24.11.2011 14:50 11,1 C 74 % 1030,4 hPa 0,0 mm 1,6 km/h (1 Bft) W-SW 247 0 min 0 UV-I 79 W/m 8,0 km/h (2 Bft)
24.11.2011 15:00 10,9 C 75 % 1030,3 hPa 0,0 mm 0,0 km/h (0 Bft) W-SW 247 0 min 0 UV-I 65 W/m 4,8 km/h (1 Bft)
24.11.2011 15:10 10,8 C 75 % 1030,3 hPa 0,0 mm 0,0 km/h (0 Bft) W-SW 247 0 min 0 UV-I 60 W/m 1,6 km/h (1 Bft)
24.11.2011 15:20 10,7 C 76 % 1030,3 hPa 0,0 mm 0,0 km/h (0 Bft) W-SW 247 0 min 0 UV-I 46 W/m 1,6 km/h (1 Bft)
24.11.2011 15:30 10,6 C 76 % 1030,2 hPa 0,0 mm 0,0 km/h (0 Bft) N 0 0 min 0 UV-I 42 W/m 0,0 km/h (0 Bft)
24.11.2011 15:40 10,3 C 78 % 1030,2 hPa 0,0 mm 0,0 km/h (0 Bft) N 0 0 min 0 UV-I 40 W/m 0,0 km/h (0 Bft)
24.11.2011 15:50 10,0 C 80 % 1030,3 hPa 0,0 mm 0,0 km/h (0 Bft) N 0 10 min 0 UV-I 35 W/m 0,0 km/h (0 Bft)
24.11.2011 16:00 9,6 C 81 % 1030,3 hPa 0,0 mm 0,0 km/h (0 Bft) N 0 10 min 0 UV-I 26 W/m 0,0 km/h (0 Bft)
24.11.2011 16:10 9,3 C 81 % 1030,2 hPa 0,0 mm 0,0 km/h (0 Bft) N 0 10 min 0 UV-I 18 W/m 0,0 km/h (0 Bft)
24.11.2011 16:20 8,9 C 83 % 1030,2 hPa 0,0 mm 0,0 km/h (0 Bft) N 0 0 min 0 UV-I 7 W/m 0,0 km/h (0 Bft)
24.11.2011 16:30 8,8 C 83 % 1030,1 hPa 0,0 mm 0,0 km/h (0 Bft) N 0 0 min 0 UV-I 0 W/m 0,0 km/h (0 Bft)
24.11.2011 16:40 8,8 C 83 % 1030,1 hPa 0,0 mm 0,0 km/h (0 Bft) N 0 0 min 0 UV-I 0 W/m 0,0 km/h (0 Bft)
24.11.2011 16:50 8,7 C 83 % 1030,1 hPa 0,0 mm 0,0 km/h (0 Bft) N 0 0 min 0 UV-I 0 W/m 0,0 km/h (0 Bft)
24.11.2011 17:00 8,6 C 82 % 1030,1 hPa 0,0 mm 0,0 km/h (0 Bft) N 0 0 min 0 UV-I 0 W/m 0,0 km/h (0 Bft)
24.11.2011 17:10 8,4 C 82 % 1030,2 hPa 0,0 mm 0,0 km/h (0 Bft) N 0 0 min 0 UV-I 0 W/m 0,0 km/h (0 Bft)
24.11.2011 17:20 8,2 C 82 % 1030,1 hPa 0,0 mm 0,0 km/h (0 Bft) N 0 0 min 0 UV-I 0 W/m 0,0 km/h (0 Bft)
24.11.2011 17:30 8,0 C 82 % 1030,1 hPa 0,0 mm 0,0 km/h (0 Bft) N 0 0 min 0 UV-I 0 W/m 0,0 km/h (0 Bft)
24.11.2011 17:40 7,8 C 82 % 1030,2 hPa 0,0 mm 0,0 km/h (0 Bft) N 0 0 min 0 UV-I 0 W/m 0,0 km/h (0 Bft)
24.11.2011 17:50 7,6 C 82 % 1030,1 hPa 0,0 mm 0,0 km/h (0 Bft) N 0 0 min 0 UV-I 0 W/m 0,0 km/h (0 Bft)
24.11.2011 18:00 7,3 C 82 % 1030,1 hPa 0,0 mm 0,0 km/h (0 Bft) N 0 0 min 0 UV-I 0 W/m 0,0 km/h (0 Bft)
24.11.2011 18:10 7,2 C 82 % 1030,1 hPa 0,0 mm 0,0 km/h (0 Bft) N 0 0 min 0 UV-I 0 W/m 0,0 km/h (0 Bft)
24.11.2011 18:20 7,0 C 83 % 1030,0 hPa 0,0 mm 0,0 km/h (0 Bft) W-SW 247 0 min 0 UV-I 0 W/m 1,6 km/h (1 Bft)
24.11.2011 18:30 6,8 C 84 % 1030,2 hPa 0,0 mm 0,0 km/h (0 Bft) W-SW 247 0 min 0 UV-I 0 W/m 4,8 km/h (1 Bft)
24.11.2011 18:40 6,8 C 85 % 1030,1 hPa 0,0 mm 0,0 km/h (0 Bft) W-SW 247 0 min 0 UV-I 0 W/m 4,8 km/h (1 Bft)
24.11.2011 18:50 6,8 C 85 % 1030,1 hPa 0,0 mm 0,0 km/h (0 Bft) W-SW 247 0 min 0 UV-I 0 W/m 4,8 km/h (1 Bft)
24.11.2011 19:00 6,8 C 86 % 1030,0 hPa 0,0 mm 0,0 km/h (0 Bft) W-SW 247 0 min 0 UV-I 0 W/m 4,8 km/h (1 Bft)
24.11.2011 19:10 6,8 C 86 % 1029,9 hPa 0,0 mm 0,0 km/h (0 Bft) W-SW 247 0 min 0 UV-I 0 W/m 6,4 km/h (2 Bft)
24.11.2011 19:20 6,8 C 86 % 1029,8 hPa 0,0 mm 0,0 km/h (0 Bft) W-SW 247 0 min 0 UV-I 0 W/m 6,4 km/h (2 Bft)
24.11.2011 19:30 6,8 C 86 % 1029,8 hPa 0,0 mm 0,0 km/h (0 Bft) W-SW 247 0 min 0 UV-I 0 W/m 3,2 km/h (1 Bft)
24.11.2011 19:40 6,7 C 86 % 1029,8 hPa 0,0 mm 0,0 km/h (0 Bft) W-SW 247 0 min 0 UV-I 0 W/m 1,6 km/h (1 Bft)
24.11.2011 19:50 6,7 C 86 % 1029,8 hPa 0,0 mm 0,0 km/h (0 Bft) W-SW 247 0 min 0 UV-I 0 W/m 1,6 km/h (1 Bft)
24.11.2011 20:00 6,6 C 87 % 1029,9 hPa 0,0 mm 0,0 km/h (0 Bft) W-SW 247 0 min 0 UV-I 0 W/m 1,6 km/h (1 Bft)
24.11.2011 20:10 6,5 C 87 % 1029,8 hPa 0,0 mm 0,0 km/h (0 Bft) W-SW 247 0 min 0 UV-I 0 W/m 1,6 km/h (1 Bft)
24.11.2011 20:20 6,4 C 87 % 1029,8 hPa 0,0 mm 0,0 km/h (0 Bft) W-SW 247 0 min 0 UV-I 0 W/m 3,2 km/h (1 Bft)
24.11.2011 20:30 6,2 C 86 % 1029,5 hPa 0,0 mm 0,0 km/h (0 Bft) N 0 0 min 0 UV-I 0 W/m 0,0 km/h (0 Bft)
24.11.2011 20:40 6,1 C 86 % 1029,5 hPa 0,0 mm 0,0 km/h (0 Bft) W-SW 247 0 min 0 UV-I 0 W/m 1,6 km/h (1 Bft)
24.11.2011 20:50 5,9 C 86 % 1029,2 hPa 0,0 mm 0,0 km/h (0 Bft) W-SW 247 0 min 0 UV-I 0 W/m 1,6 km/h (1 Bft)
24.11.2011 21:00 5,7 C 86 % 1029,2 hPa 0,0 mm 0,0 km/h (0 Bft) N 0 0 min 0 UV-I 0 W/m 0,0 km/h (0 Bft)
24.11.2011 21:10 5,6 C 86 % 1029,3 hPa 0,0 mm 0,0 km/h (0 Bft) N 0 0 min 0 UV-I 0 W/m 0,0 km/h (0 Bft)
24.11.2011 21:20 5,4 C 86 % 1029,1 hPa 0,0 mm 0,0 km/h (0 Bft) N 0 0 min 0 UV-I 0 W/m 0,0 km/h (0 Bft)
24.11.2011 21:30 5,2 C 86 % 1029,0 hPa 0,0 mm 0,0 km/h (0 Bft) N 0 0 min 0 UV-I 0 W/m 0,0 km/h (0 Bft)
24.11.2011 21:40 5,1 C 86 % 1028,9 hPa 0,0 mm 0,0 km/h (0 Bft) N 0 0 min 0 UV-I 0 W/m 0,0 km/h (0 Bft)
24.11.2011 21:50 4,9 C 87 % 1028,9 hPa 0,0 mm 0,0 km/h (0 Bft) W-SW 247 0 min 0 UV-I 0 W/m 1,6 km/h (1 Bft)
24.11.2011 22:00 4,8 C 87 % 1028,8 hPa 0,0 mm 0,0 km/h (0 Bft) W-SW 247 0 min 0 UV-I 0 W/m 3,2 km/h (1 Bft)
24.11.2011 22:10 4,8 C 87 % 1028,7 hPa 0,0 mm 0,0 km/h (0 Bft) W-SW 247 0 min 0 UV-I 0 W/m 1,6 km/h (1 Bft)
24.11.2011 22:20 4,7 C 87 % 1028,5 hPa 0,0 mm 0,0 km/h (0 Bft) N 0 0 min 0 UV-I 0 W/m 0,0 km/h (0 Bft)
24.11.2011 22:30 4,7 C 87 % 1028,3 hPa 0,0 mm 0,0 km/h (0 Bft) N 0 0 min 0 UV-I 0 W/m 0,0 km/h (0 Bft)
24.11.2011 22:40 4,6 C 87 % 1028,3 hPa 0,0 mm 0,0 km/h (0 Bft) N 0 0 min 0 UV-I 0 W/m 0,0 km/h (0 Bft)
24.11.2011 22:50 4,6 C 88 % 1028,2 hPa 0,0 mm 0,0 km/h (0 Bft) N 0 0 min 0 UV-I 0 W/m 0,0 km/h (0 Bft)
24.11.2011 23:00 4,4 C 88 % 1028,1 hPa 0,0 mm 0,0 km/h (0 Bft) N 0 0 min 0 UV-I 0 W/m 0,0 km/h (0 Bft)
24.11.2011 23:10 4,3 C 88 % 1028,0 hPa 0,0 mm 0,0 km/h (0 Bft) N 0 0 min 0 UV-I 0 W/m 0,0 km/h (0 Bft)
24.11.2011 23:20 4,2 C 88 % 1027,8 hPa 0,0 mm 0,0 km/h (0 Bft) N 0 0 min 0 UV-I 0 W/m 0,0 km/h (0 Bft)
24.11.2011 23:30 4,1 C 88 % 1027,7 hPa 0,0 mm 0,0 km/h (0 Bft) N 0 0 min 0 UV-I 0 W/m 0,0 km/h (0 Bft)
24.11.2011 23:40 4,0 C 88 % 1027,7 hPa 0,0 mm 0,0 km/h (0 Bft) W-SW 247 0 min 0 UV-I 0 W/m 1,6 km/h (1 Bft)
24.11.2011 23:50 3,9 C 88 % 1027,6 hPa 0,0 mm 0,0 km/h (0 Bft) W-SW 247 0 min 0 UV-I 0 W/m 1,6 km/h (1 Bft)
_ Min-Zeit 23:50 13:50 23:50 - 00:00 - - - - - 00:00
Minimum _ 3,8 C 74 % 1027,6 hPa - 0,0 km/h (0 Bft) - - - - - 0,0 km/h (0 Bft)
_ Max-Zeit 13:30 10:00 10:00 00:00 13:10 - - 11:00 12:10 12:50 13:10
Maximum _ 11,5 C 93 % 1031,9 hPa 0,0 mm 6,4 km/h
SW (2 Bft)
- - 10 min 1 UV-I 243 W/m 16,1 km/h
W-SW (3 Bft)
Durchschnitt _ 8,1 C 87 % 1030,3 hPa #0,0 mm 0,4 km/h (0 Bft) W-SW - #3:30 h 1 UV-I 111 W/m 2,6 km/h (1 Bft)